sensor_id;sensor_type;location;lat;lon;timestamp;P1;durP1;ratioP1;P2;durP2;ratioP2
15385;SDS011;7791;47.246;9.648;2022-07-06T00:01:09;6.13;;;4.50;;
15385;SDS011;7791;47.246;9.648;2022-07-06T00:03:35;5.47;;;4.57;;
15385;SDS011;7791;47.246;9.648;2022-07-06T00:06:00;7.27;;;4.43;;
15385;SDS011;7791;47.246;9.648;2022-07-06T00:08:28;11.33;;;4.63;;
15385;SDS011;7791;47.246;9.648;2022-07-06T00:10:54;7.57;;;4.40;;
15385;SDS011;7791;47.246;9.648;2022-07-06T00:13:21;6.13;;;4.77;;
15385;SDS011;7791;47.246;9.648;2022-07-06T00:15:46;7.00;;;4.30;;
15385;SDS011;7791;47.246;9.648;2022-07-06T00:18:13;9.73;;;5.10;;
15385;SDS011;7791;47.246;9.648;2022-07-06T00:20:42;7.93;;;4.90;;
15385;SDS011;7791;47.246;9.648;2022-07-06T00:23:07;7.10;;;5.07;;
15385;SDS011;7791;47.246;9.648;2022-07-06T00:25:35;9.87;;;5.27;;
15385;SDS011;7791;47.246;9.648;2022-07-06T00:28:02;9.13;;;5.30;;
15385;SDS011;7791;47.246;9.648;2022-07-06T00:30:28;6.83;;;5.13;;
15385;SDS011;7791;47.246;9.648;2022-07-06T00:32:55;7.37;;;5.00;;
15385;SDS011;7791;47.246;9.648;2022-07-06T00:35:23;8.20;;;4.80;;
15385;SDS011;7791;47.246;9.648;2022-07-06T00:37:49;7.90;;;5.37;;
15385;SDS011;7791;47.246;9.648;2022-07-06T00:40:16;9.53;;;5.50;;
15385;SDS011;7791;47.246;9.648;2022-07-06T00:42:44;9.07;;;5.23;;
15385;SDS011;7791;47.246;9.648;2022-07-06T00:45:12;7.80;;;5.90;;
15385;SDS011;7791;47.246;9.648;2022-07-06T00:47:38;9.93;;;6.10;;
15385;SDS011;7791;47.246;9.648;2022-07-06T00:50:05;7.83;;;5.20;;
15385;SDS011;7791;47.246;9.648;2022-07-06T00:52:32;6.80;;;5.37;;
15385;SDS011;7791;47.246;9.648;2022-07-06T00:54:58;8.37;;;5.87;;
15385;SDS011;7791;47.246;9.648;2022-07-06T00:57:26;6.00;;;5.03;;
15385;SDS011;7791;47.246;9.648;2022-07-06T00:59:54;11.13;;;5.47;;
15385;SDS011;7791;47.246;9.648;2022-07-06T01:02:21;9.00;;;5.33;;
15385;SDS011;7791;47.246;9.648;2022-07-06T01:04:48;8.53;;;5.60;;
15385;SDS011;7791;47.246;9.648;2022-07-06T01:07:13;6.93;;;5.60;;
15385;SDS011;7791;47.246;9.648;2022-07-06T01:09:40;11.17;;;6.27;;
15385;SDS011;7791;47.246;9.648;2022-07-06T01:12:06;14.47;;;6.33;;
15385;SDS011;7791;47.246;9.648;2022-07-06T01:14:32;8.57;;;6.50;;
15385;SDS011;7791;47.246;9.648;2022-07-06T01:17:00;9.37;;;5.73;;
15385;SDS011;7791;47.246;9.648;2022-07-06T01:19:26;8.20;;;5.93;;
15385;SDS011;7791;47.246;9.648;2022-07-06T01:21:54;8.23;;;6.23;;
15385;SDS011;7791;47.246;9.648;2022-07-06T01:24:19;9.87;;;6.27;;
15385;SDS011;7791;47.246;9.648;2022-07-06T01:26:45;12.17;;;6.00;;
15385;SDS011;7791;47.246;9.648;2022-07-06T01:29:12;11.03;;;5.73;;
15385;SDS011;7791;47.246;9.648;2022-07-06T01:31:44;6.93;;;6.17;;
15385;SDS011;7791;47.246;9.648;2022-07-06T01:34:11;9.67;;;5.73;;
15385;SDS011;7791;47.246;9.648;2022-07-06T01:36:38;6.27;;;5.57;;
15385;SDS011;7791;47.246;9.648;2022-07-06T01:39:09;7.50;;;5.60;;
15385;SDS011;7791;47.246;9.648;2022-07-06T01:41:36;6.50;;;5.53;;
15385;SDS011;7791;47.246;9.648;2022-07-06T01:44:03;6.93;;;5.90;;
15385;SDS011;7791;47.246;9.648;2022-07-06T01:46:31;8.10;;;6.53;;
15385;SDS011;7791;47.246;9.648;2022-07-06T01:48:58;10.17;;;6.33;;
15385;SDS011;7791;47.246;9.648;2022-07-06T01:51:24;7.73;;;6.40;;
15385;SDS011;7791;47.246;9.648;2022-07-06T01:53:50;9.27;;;6.03;;
15385;SDS011;7791;47.246;9.648;2022-07-06T01:56:19;6.73;;;5.73;;
15385;SDS011;7791;47.246;9.648;2022-07-06T01:58:45;7.10;;;5.70;;
15385;SDS011;7791;47.246;9.648;2022-07-06T02:01:12;8.90;;;6.00;;
15385;SDS011;7791;47.246;9.648;2022-07-06T02:03:39;9.17;;;6.53;;
15385;SDS011;7791;47.246;9.648;2022-07-06T02:06:06;13.13;;;6.13;;
15385;SDS011;7791;47.246;9.648;2022-07-06T02:08:32;7.13;;;6.20;;
15385;SDS011;7791;47.246;9.648;2022-07-06T02:10:59;7.23;;;5.60;;
15385;SDS011;7791;47.246;9.648;2022-07-06T02:13:27;8.83;;;5.50;;
15385;SDS011;7791;47.246;9.648;2022-07-06T02:15:53;8.70;;;4.43;;
15385;SDS011;7791;47.246;9.648;2022-07-06T02:18:19;7.13;;;3.90;;
15385;SDS011;7791;47.246;9.648;2022-07-06T02:20:45;7.77;;;4.17;;
15385;SDS011;7791;47.246;9.648;2022-07-06T02:23:11;5.80;;;4.50;;
15385;SDS011;7791;47.246;9.648;2022-07-06T02:25:39;5.70;;;3.97;;
15385;SDS011;7791;47.246;9.648;2022-07-06T02:28:05;6.90;;;4.40;;
15385;SDS011;7791;47.246;9.648;2022-07-06T02:30:32;6.23;;;4.50;;
15385;SDS011;7791;47.246;9.648;2022-07-06T02:32:58;7.20;;;4.97;;
15385;SDS011;7791;47.246;9.648;2022-07-06T02:35:24;6.33;;;4.73;;
15385;SDS011;7791;47.246;9.648;2022-07-06T02:37:50;6.37;;;5.00;;
15385;SDS011;7791;47.246;9.648;2022-07-06T02:40:18;9.83;;;5.30;;
15385;SDS011;7791;47.246;9.648;2022-07-06T02:42:45;8.07;;;5.73;;
15385;SDS011;7791;47.246;9.648;2022-07-06T02:45:11;8.97;;;6.00;;
15385;SDS011;7791;47.246;9.648;2022-07-06T02:47:38;12.07;;;6.27;;
15385;SDS011;7791;47.246;9.648;2022-07-06T02:50:05;8.67;;;5.83;;
15385;SDS011;7791;47.246;9.648;2022-07-06T02:52:32;9.07;;;5.80;;
15385;SDS011;7791;47.246;9.648;2022-07-06T02:54:58;6.40;;;5.80;;
15385;SDS011;7791;47.246;9.648;2022-07-06T02:57:23;8.97;;;5.87;;
15385;SDS011;7791;47.246;9.648;2022-07-06T02:59:49;9.00;;;6.50;;
15385;SDS011;7791;47.246;9.648;2022-07-06T03:02:15;7.27;;;6.07;;
15385;SDS011;7791;47.246;9.648;2022-07-06T03:04:42;7.93;;;6.07;;
15385;SDS011;7791;47.246;9.648;2022-07-06T03:07:08;6.20;;;4.83;;
15385;SDS011;7791;47.246;9.648;2022-07-06T03:09:35;7.60;;;4.97;;
15385;SDS011;7791;47.246;9.648;2022-07-06T03:12:07;9.60;;;4.80;;
15385;SDS011;7791;47.246;9.648;2022-07-06T03:14:34;5.57;;;4.63;;
15385;SDS011;7791;47.246;9.648;2022-07-06T03:17:00;5.87;;;4.40;;
15385;SDS011;7791;47.246;9.648;2022-07-06T03:19:26;5.90;;;4.20;;
15385;SDS011;7791;47.246;9.648;2022-07-06T03:21:54;4.40;;;3.53;;
15385;SDS011;7791;47.246;9.648;2022-07-06T03:24:20;5.93;;;3.67;;
15385;SDS011;7791;47.246;9.648;2022-07-06T03:26:56;6.17;;;3.60;;
15385;SDS011;7791;47.246;9.648;2022-07-06T03:29:22;4.73;;;3.50;;
15385;SDS011;7791;47.246;9.648;2022-07-06T03:31:48;5.37;;;3.90;;
15385;SDS011;7791;47.246;9.648;2022-07-06T03:34:14;5.50;;;4.00;;
15385;SDS011;7791;47.246;9.648;2022-07-06T03:36:40;5.77;;;4.03;;
15385;SDS011;7791;47.246;9.648;2022-07-06T03:39:07;7.10;;;3.83;;
15385;SDS011;7791;47.246;9.648;2022-07-06T03:41:33;5.53;;;3.93;;
15385;SDS011;7791;47.246;9.648;2022-07-06T03:44:00;4.17;;;3.20;;
15385;SDS011;7791;47.246;9.648;2022-07-06T03:46:29;4.17;;;3.50;;
15385;SDS011;7791;47.246;9.648;2022-07-06T03:48:56;4.23;;;3.57;;
15385;SDS011;7791;47.246;9.648;2022-07-06T03:51:23;6.63;;;3.57;;
15385;SDS011;7791;47.246;9.648;2022-07-06T03:53:51;4.53;;;3.80;;
15385;SDS011;7791;47.246;9.648;2022-07-06T03:56:19;6.50;;;3.67;;
15385;SDS011;7791;47.246;9.648;2022-07-06T03:58:59;3.77;;;3.47;;
15385;SDS011;7791;47.246;9.648;2022-07-06T04:01:26;6.57;;;3.73;;
15385;SDS011;7791;47.246;9.648;2022-07-06T04:03:53;8.00;;;3.90;;
15385;SDS011;7791;47.246;9.648;2022-07-06T04:06:19;3.90;;;3.23;;
15385;SDS011;7791;47.246;9.648;2022-07-06T04:08:44;5.33;;;3.70;;
15385;SDS011;7791;47.246;9.648;2022-07-06T04:11:10;5.97;;;3.23;;
15385;SDS011;7791;47.246;9.648;2022-07-06T04:13:40;7.07;;;3.43;;
15385;SDS011;7791;47.246;9.648;2022-07-06T04:16:06;4.33;;;3.23;;
15385;SDS011;7791;47.246;9.648;2022-07-06T04:18:32;4.57;;;3.63;;
15385;SDS011;7791;47.246;9.648;2022-07-06T04:20:59;8.67;;;3.77;;
15385;SDS011;7791;47.246;9.648;2022-07-06T04:23:25;6.57;;;3.97;;
15385;SDS011;7791;47.246;9.648;2022-07-06T04:25:52;5.97;;;4.40;;
15385;SDS011;7791;47.246;9.648;2022-07-06T04:28:18;3.63;;;3.33;;
15385;SDS011;7791;47.246;9.648;2022-07-06T04:30:45;5.00;;;3.43;;
15385;SDS011;7791;47.246;9.648;2022-07-06T04:33:12;5.80;;;3.70;;
15385;SDS011;7791;47.246;9.648;2022-07-06T04:35:38;6.97;;;3.97;;
15385;SDS011;7791;47.246;9.648;2022-07-06T04:38:04;6.90;;;3.80;;
15385;SDS011;7791;47.246;9.648;2022-07-06T04:40:30;7.60;;;4.27;;
15385;SDS011;7791;47.246;9.648;2022-07-06T04:42:57;7.80;;;4.20;;
15385;SDS011;7791;47.246;9.648;2022-07-06T04:45:23;5.97;;;4.00;;
15385;SDS011;7791;47.246;9.648;2022-07-06T04:47:51;7.77;;;4.10;;
15385;SDS011;7791;47.246;9.648;2022-07-06T04:50:17;7.50;;;4.50;;
15385;SDS011;7791;47.246;9.648;2022-07-06T04:52:43;8.87;;;5.93;;
15385;SDS011;7791;47.246;9.648;2022-07-06T04:55:13;6.17;;;5.30;;
15385;SDS011;7791;47.246;9.648;2022-07-06T04:57:39;7.63;;;4.33;;
15385;SDS011;7791;47.246;9.648;2022-07-06T05:00:06;7.83;;;4.43;;
15385;SDS011;7791;47.246;9.648;2022-07-06T05:02:33;6.73;;;4.20;;
15385;SDS011;7791;47.246;9.648;2022-07-06T05:05:00;7.27;;;4.70;;
15385;SDS011;7791;47.246;9.648;2022-07-06T05:07:27;12.30;;;6.60;;
15385;SDS011;7791;47.246;9.648;2022-07-06T05:09:52;8.43;;;4.67;;
15385;SDS011;7791;47.246;9.648;2022-07-06T05:12:19;6.63;;;3.87;;
15385;SDS011;7791;47.246;9.648;2022-07-06T05:14:46;10.30;;;3.97;;
15385;SDS011;7791;47.246;9.648;2022-07-06T05:17:11;4.13;;;3.23;;
15385;SDS011;7791;47.246;9.648;2022-07-06T05:19:38;4.57;;;3.20;;
15385;SDS011;7791;47.246;9.648;2022-07-06T05:22:05;5.23;;;2.53;;
15385;SDS011;7791;47.246;9.648;2022-07-06T05:24:31;5.77;;;2.30;;
15385;SDS011;7791;47.246;9.648;2022-07-06T05:26:57;4.43;;;2.23;;
15385;SDS011;7791;47.246;9.648;2022-07-06T05:29:25;6.63;;;2.30;;
15385;SDS011;7791;47.246;9.648;2022-07-06T05:31:51;5.60;;;2.10;;
15385;SDS011;7791;47.246;9.648;2022-07-06T05:34:19;8.00;;;2.60;;
15385;SDS011;7791;47.246;9.648;2022-07-06T05:36:45;4.30;;;2.20;;
15385;SDS011;7791;47.246;9.648;2022-07-06T05:39:13;6.80;;;2.30;;
15385;SDS011;7791;47.246;9.648;2022-07-06T05:41:39;3.77;;;1.80;;
15385;SDS011;7791;47.246;9.648;2022-07-06T05:44:05;5.18;;;2.05;;
15385;SDS011;7791;47.246;9.648;2022-07-06T05:46:30;2.28;;;1.83;;
15385;SDS011;7791;47.246;9.648;2022-07-06T05:48:57;3.40;;;2.00;;
15385;SDS011;7791;47.246;9.648;2022-07-06T05:51:23;2.70;;;1.80;;
15385;SDS011;7791;47.246;9.648;2022-07-06T05:53:49;5.28;;;1.90;;
15385;SDS011;7791;47.246;9.648;2022-07-06T05:56:17;3.72;;;1.90;;
15385;SDS011;7791;47.246;9.648;2022-07-06T05:58:43;1.80;;;1.52;;
15385;SDS011;7791;47.246;9.648;2022-07-06T06:01:11;3.22;;;1.70;;
15385;SDS011;7791;47.246;9.648;2022-07-06T06:03:37;2.40;;;1.40;;
15385;SDS011;7791;47.246;9.648;2022-07-06T06:06:04;5.05;;;1.92;;
15385;SDS011;7791;47.246;9.648;2022-07-06T06:08:30;4.18;;;1.65;;
15385;SDS011;7791;47.246;9.648;2022-07-06T06:10:56;2.55;;;1.60;;
15385;SDS011;7791;47.246;9.648;2022-07-06T06:13:26;7.68;;;2.45;;
15385;SDS011;7791;47.246;9.648;2022-07-06T06:15:52;4.35;;;1.80;;
15385;SDS011;7791;47.246;9.648;2022-07-06T06:18:17;3.55;;;1.40;;
15385;SDS011;7791;47.246;9.648;2022-07-06T06:20:45;3.40;;;1.48;;
15385;SDS011;7791;47.246;9.648;2022-07-06T06:23:12;2.88;;;1.52;;
15385;SDS011;7791;47.246;9.648;2022-07-06T06:25:38;5.95;;;1.77;;
15385;SDS011;7791;47.246;9.648;2022-07-06T06:28:05;3.22;;;1.90;;
15385;SDS011;7791;47.246;9.648;2022-07-06T06:30:33;3.10;;;1.73;;
15385;SDS011;7791;47.246;9.648;2022-07-06T06:33:08;3.10;;;1.73;;
15385;SDS011;7791;47.246;9.648;2022-07-06T06:35:38;2.38;;;1.70;;
15385;SDS011;7791;47.246;9.648;2022-07-06T06:38:07;3.13;;;1.60;;
15385;SDS011;7791;47.246;9.648;2022-07-06T06:40:33;3.58;;;1.90;;
15385;SDS011;7791;47.246;9.648;2022-07-06T06:42:59;3.17;;;1.85;;
15385;SDS011;7791;47.246;9.648;2022-07-06T06:45:24;4.47;;;1.80;;
15385;SDS011;7791;47.246;9.648;2022-07-06T06:47:55;2.75;;;1.60;;
15385;SDS011;7791;47.246;9.648;2022-07-06T06:50:22;4.70;;;1.48;;
15385;SDS011;7791;47.246;9.648;2022-07-06T06:52:47;1.70;;;1.60;;
15385;SDS011;7791;47.246;9.648;2022-07-06T06:55:13;4.47;;;1.63;;
15385;SDS011;7791;47.246;9.648;2022-07-06T06:57:39;3.13;;;1.90;;
15385;SDS011;7791;47.246;9.648;2022-07-06T07:00:07;3.97;;;1.80;;
15385;SDS011;7791;47.246;9.648;2022-07-06T07:02:34;5.90;;;2.03;;
15385;SDS011;7791;47.246;9.648;2022-07-06T07:05:01;2.42;;;2.00;;
15385;SDS011;7791;47.246;9.648;2022-07-06T07:07:28;5.80;;;2.10;;
15385;SDS011;7791;47.246;9.648;2022-07-06T07:09:54;2.85;;;1.70;;
15385;SDS011;7791;47.246;9.648;2022-07-06T07:12:21;4.93;;;2.03;;
15385;SDS011;7791;47.246;9.648;2022-07-06T07:14:47;7.05;;;2.65;;
15385;SDS011;7791;47.246;9.648;2022-07-06T07:17:14;4.90;;;2.80;;
15385;SDS011;7791;47.246;9.648;2022-07-06T07:19:40;5.82;;;2.55;;
15385;SDS011;7791;47.246;9.648;2022-07-06T07:22:07;3.15;;;2.00;;
15385;SDS011;7791;47.246;9.648;2022-07-06T07:24:34;5.03;;;2.22;;
15385;SDS011;7791;47.246;9.648;2022-07-06T07:27:00;4.72;;;2.17;;
15385;SDS011;7791;47.246;9.648;2022-07-06T07:29:26;3.97;;;2.55;;
15385;SDS011;7791;47.246;9.648;2022-07-06T07:31:52;3.42;;;2.00;;
15385;SDS011;7791;47.246;9.648;2022-07-06T07:34:18;6.68;;;2.20;;
15385;SDS011;7791;47.246;9.648;2022-07-06T07:36:44;4.82;;;2.50;;
15385;SDS011;7791;47.246;9.648;2022-07-06T07:39:12;4.78;;;2.10;;
15385;SDS011;7791;47.246;9.648;2022-07-06T07:41:38;4.07;;;2.30;;
15385;SDS011;7791;47.246;9.648;2022-07-06T07:44:05;3.35;;;2.10;;
15385;SDS011;7791;47.246;9.648;2022-07-06T07:46:31;6.30;;;2.42;;
15385;SDS011;7791;47.246;9.648;2022-07-06T07:48:58;8.43;;;2.20;;
15385;SDS011;7791;47.246;9.648;2022-07-06T07:51:23;3.85;;;2.05;;
15385;SDS011;7791;47.246;9.648;2022-07-06T07:53:50;6.68;;;2.22;;
15385;SDS011;7791;47.246;9.648;2022-07-06T07:56:18;5.07;;;2.30;;
15385;SDS011;7791;47.246;9.648;2022-07-06T07:58:43;3.72;;;2.47;;
15385;SDS011;7791;47.246;9.648;2022-07-06T08:01:11;6.18;;;2.70;;
15385;SDS011;7791;47.246;9.648;2022-07-06T08:03:40;3.28;;;2.15;;
15385;SDS011;7791;47.246;9.648;2022-07-06T08:06:06;2.60;;;2.15;;
15385;SDS011;7791;47.246;9.648;2022-07-06T08:08:32;8.63;;;2.60;;
15385;SDS011;7791;47.246;9.648;2022-07-06T08:10:58;5.32;;;2.38;;
15385;SDS011;7791;47.246;9.648;2022-07-06T08:13:25;3.58;;;2.50;;
15385;SDS011;7791;47.246;9.648;2022-07-06T08:15:51;3.03;;;2.30;;
15385;SDS011;7791;47.246;9.648;2022-07-06T08:18:21;4.38;;;2.47;;
15385;SDS011;7791;47.246;9.648;2022-07-06T08:20:48;4.68;;;2.40;;
15385;SDS011;7791;47.246;9.648;2022-07-06T08:23:14;4.22;;;2.10;;
15385;SDS011;7791;47.246;9.648;2022-07-06T08:25:40;4.88;;;2.63;;
15385;SDS011;7791;47.246;9.648;2022-07-06T08:28:08;4.25;;;2.42;;
15385;SDS011;7791;47.246;9.648;2022-07-06T08:30:35;6.60;;;3.05;;
15385;SDS011;7791;47.246;9.648;2022-07-06T08:33:04;7.63;;;5.32;;
15385;SDS011;7791;47.246;9.648;2022-07-06T08:35:30;4.25;;;2.40;;
15385;SDS011;7791;47.246;9.648;2022-07-06T08:37:57;7.15;;;2.50;;
15385;SDS011;7791;47.246;9.648;2022-07-06T08:40:23;2.90;;;2.10;;
15385;SDS011;7791;47.246;9.648;2022-07-06T08:42:56;5.72;;;2.33;;
15385;SDS011;7791;47.246;9.648;2022-07-06T08:45:25;7.28;;;2.70;;
15385;SDS011;7791;47.246;9.648;2022-07-06T08:47:53;4.72;;;2.40;;
15385;SDS011;7791;47.246;9.648;2022-07-06T08:50:24;5.78;;;2.47;;
15385;SDS011;7791;47.246;9.648;2022-07-06T08:52:51;14.38;;;3.17;;
15385;SDS011;7791;47.246;9.648;2022-07-06T08:55:18;5.45;;;2.65;;
15385;SDS011;7791;47.246;9.648;2022-07-06T08:57:45;5.63;;;3.00;;
15385;SDS011;7791;47.246;9.648;2022-07-06T09:00:13;5.47;;;2.65;;
15385;SDS011;7791;47.246;9.648;2022-07-06T09:02:40;3.65;;;2.42;;
15385;SDS011;7791;47.246;9.648;2022-07-06T09:05:09;3.28;;;2.30;;
15385;SDS011;7791;47.246;9.648;2022-07-06T09:07:39;3.85;;;2.33;;
15385;SDS011;7791;47.246;9.648;2022-07-06T09:10:06;4.18;;;2.67;;
15385;SDS011;7791;47.246;9.648;2022-07-06T09:12:33;5.15;;;2.40;;
15385;SDS011;7791;47.246;9.648;2022-07-06T09:14:59;4.75;;;2.20;;
15385;SDS011;7791;47.246;9.648;2022-07-06T09:17:27;4.85;;;2.58;;
15385;SDS011;7791;47.246;9.648;2022-07-06T09:20:02;2.97;;;2.05;;
15385;SDS011;7791;47.246;9.648;2022-07-06T09:22:33;5.28;;;2.33;;
15385;SDS011;7791;47.246;9.648;2022-07-06T09:25:04;4.43;;;2.17;;
15385;SDS011;7791;47.246;9.648;2022-07-06T09:27:31;4.93;;;2.03;;
15385;SDS011;7791;47.246;9.648;2022-07-06T09:30:01;3.92;;;2.03;;
15385;SDS011;7791;47.246;9.648;2022-07-06T09:32:29;3.78;;;2.10;;
15385;SDS011;7791;47.246;9.648;2022-07-06T09:34:55;6.70;;;2.20;;
15385;SDS011;7791;47.246;9.648;2022-07-06T09:37:21;2.90;;;1.90;;
15385;SDS011;7791;47.246;9.648;2022-07-06T09:39:49;3.92;;;2.30;;
15385;SDS011;7791;47.246;9.648;2022-07-06T09:42:15;8.55;;;2.00;;
15385;SDS011;7791;47.246;9.648;2022-07-06T09:44:42;3.22;;;2.22;;
15385;SDS011;7791;47.246;9.648;2022-07-06T09:47:08;3.28;;;1.75;;
15385;SDS011;7791;47.246;9.648;2022-07-06T09:49:36;4.32;;;2.10;;
15385;SDS011;7791;47.246;9.648;2022-07-06T09:52:03;4.00;;;1.92;;
15385;SDS011;7791;47.246;9.648;2022-07-06T09:54:30;3.63;;;1.83;;
15385;SDS011;7791;47.246;9.648;2022-07-06T09:57:02;2.83;;;1.70;;
15385;SDS011;7791;47.246;9.648;2022-07-06T09:59:29;4.40;;;1.90;;
15385;SDS011;7791;47.246;9.648;2022-07-06T10:01:57;3.83;;;1.75;;
15385;SDS011;7791;47.246;9.648;2022-07-06T10:04:29;4.05;;;1.58;;
15385;SDS011;7791;47.246;9.648;2022-07-06T10:06:57;4.82;;;1.90;;
15385;SDS011;7791;47.246;9.648;2022-07-06T10:09:25;3.65;;;2.00;;
15385;SDS011;7791;47.246;9.648;2022-07-06T10:11:54;3.22;;;1.70;;
15385;SDS011;7791;47.246;9.648;2022-07-06T10:14:24;6.70;;;1.85;;
15385;SDS011;7791;47.246;9.648;2022-07-06T10:16:53;5.03;;;1.80;;
15385;SDS011;7791;47.246;9.648;2022-07-06T10:19:20;5.75;;;1.65;;
15385;SDS011;7791;47.246;9.648;2022-07-06T10:21:47;3.22;;;1.80;;
15385;SDS011;7791;47.246;9.648;2022-07-06T10:24:14;5.28;;;1.65;;
15385;SDS011;7791;47.246;9.648;2022-07-06T10:26:41;4.50;;;1.60;;
15385;SDS011;7791;47.246;9.648;2022-07-06T10:29:07;5.10;;;1.77;;
15385;SDS011;7791;47.246;9.648;2022-07-06T10:31:35;2.92;;;1.40;;
15385;SDS011;7791;47.246;9.648;2022-07-06T10:34:04;2.85;;;1.73;;
15385;SDS011;7791;47.246;9.648;2022-07-06T10:36:36;3.00;;;1.73;;
15385;SDS011;7791;47.246;9.648;2022-07-06T10:39:02;4.05;;;1.50;;
15385;SDS011;7791;47.246;9.648;2022-07-06T10:41:32;2.67;;;1.52;;
15385;SDS011;7791;47.246;9.648;2022-07-06T10:44:14;5.88;;;1.90;;
15385;SDS011;7791;47.246;9.648;2022-07-06T10:46:43;4.45;;;1.60;;
15385;SDS011;7791;47.246;9.648;2022-07-06T10:49:19;3.58;;;1.50;;
15385;SDS011;7791;47.246;9.648;2022-07-06T10:51:49;1.65;;;1.55;;
15385;SDS011;7791;47.246;9.648;2022-07-06T10:54:16;1.90;;;1.67;;
15385;SDS011;7791;47.246;9.648;2022-07-06T10:56:47;2.95;;;1.60;;
15385;SDS011;7791;47.246;9.648;2022-07-06T10:59:15;3.88;;;1.60;;
15385;SDS011;7791;47.246;9.648;2022-07-06T11:04:39;3.22;;;1.40;;
15385;SDS011;7791;47.246;9.648;2022-07-06T11:07:09;3.17;;;1.27;;
15385;SDS011;7791;47.246;9.648;2022-07-06T11:09:36;2.45;;;1.60;;
15385;SDS011;7791;47.246;9.648;2022-07-06T11:12:11;4.43;;;1.67;;
15385;SDS011;7791;47.246;9.648;2022-07-06T11:14:37;3.65;;;1.60;;
15385;SDS011;7791;47.246;9.648;2022-07-06T11:17:06;4.85;;;1.73;;
15385;SDS011;7791;47.246;9.648;2022-07-06T11:19:37;2.28;;;1.50;;
15385;SDS011;7791;47.246;9.648;2022-07-06T11:22:06;2.75;;;1.50;;
15385;SDS011;7791;47.246;9.648;2022-07-06T11:24:34;4.25;;;1.48;;
15385;SDS011;7791;47.246;9.648;2022-07-06T11:27:04;3.92;;;1.27;;
15385;SDS011;7791;47.246;9.648;2022-07-06T11:29:30;2.58;;;1.63;;
15385;SDS011;7791;47.246;9.648;2022-07-06T11:32:00;4.60;;;1.80;;
15385;SDS011;7791;47.246;9.648;2022-07-06T11:34:29;2.22;;;1.55;;
15385;SDS011;7791;47.246;9.648;2022-07-06T11:37:00;1.92;;;1.40;;
15385;SDS011;7791;47.246;9.648;2022-07-06T11:39:28;3.00;;;1.40;;
15385;SDS011;7791;47.246;9.648;2022-07-06T11:41:55;4.88;;;1.77;;
15385;SDS011;7791;47.246;9.648;2022-07-06T11:44:21;3.72;;;1.45;;
15385;SDS011;7791;47.246;9.648;2022-07-06T11:46:49;2.58;;;1.52;;
15385;SDS011;7791;47.246;9.648;2022-07-06T11:49:17;5.35;;;1.45;;
15385;SDS011;7791;47.246;9.648;2022-07-06T11:51:46;3.13;;;1.42;;
15385;SDS011;7791;47.246;9.648;2022-07-06T11:54:14;3.80;;;1.80;;
15385;SDS011;7791;47.246;9.648;2022-07-06T11:56:45;2.72;;;1.48;;
15385;SDS011;7791;47.246;9.648;2022-07-06T11:59:12;4.13;;;1.80;;
15385;SDS011;7791;47.246;9.648;2022-07-06T12:01:40;2.45;;;1.40;;
15385;SDS011;7791;47.246;9.648;2022-07-06T12:04:07;3.75;;;1.30;;
15385;SDS011;7791;47.246;9.648;2022-07-06T12:06:37;5.28;;;1.52;;
15385;SDS011;7791;47.246;9.648;2022-07-06T12:09:03;3.50;;;1.40;;
15385;SDS011;7791;47.246;9.648;2022-07-06T12:11:32;3.20;;;1.25;;
15385;SDS011;7791;47.246;9.648;2022-07-06T12:14:00;4.18;;;1.40;;
15385;SDS011;7791;47.246;9.648;2022-07-06T12:16:29;2.30;;;1.25;;
15385;SDS011;7791;47.246;9.648;2022-07-06T12:18:56;1.90;;;1.40;;
15385;SDS011;7791;47.246;9.648;2022-07-06T12:21:22;2.90;;;1.60;;
15385;SDS011;7791;47.246;9.648;2022-07-06T12:23:48;2.30;;;1.42;;
15385;SDS011;7791;47.246;9.648;2022-07-06T12:26:16;1.83;;;1.38;;
15385;SDS011;7791;47.246;9.648;2022-07-06T12:28:46;3.05;;;1.40;;
15385;SDS011;7791;47.246;9.648;2022-07-06T12:31:33;3.90;;;1.45;;
15385;SDS011;7791;47.246;9.648;2022-07-06T12:34:00;4.10;;;1.52;;
15385;SDS011;7791;47.246;9.648;2022-07-06T12:36:26;2.38;;;1.40;;
15385;SDS011;7791;47.246;9.648;2022-07-06T12:38:52;3.47;;;1.50;;
15385;SDS011;7791;47.246;9.648;2022-07-06T12:41:31;2.08;;;1.48;;
15385;SDS011;7791;47.246;9.648;2022-07-06T12:44:04;2.58;;;1.48;;
15385;SDS011;7791;47.246;9.648;2022-07-06T12:46:32;1.77;;;1.30;;
15385;SDS011;7791;47.246;9.648;2022-07-06T12:49:02;3.13;;;1.40;;
15385;SDS011;7791;47.246;9.648;2022-07-06T12:51:48;3.08;;;1.60;;
15385;SDS011;7791;47.246;9.648;2022-07-06T12:54:18;3.00;;;1.50;;
15385;SDS011;7791;47.246;9.648;2022-07-06T12:59:44;4.60;;;1.58;;
15385;SDS011;7791;47.246;9.648;2022-07-06T13:02:21;3.47;;;1.50;;
15385;SDS011;7791;47.246;9.648;2022-07-06T13:04:55;2.92;;;1.48;;
15385;SDS011;7791;47.246;9.648;2022-07-06T13:07:22;2.70;;;1.60;;
15385;SDS011;7791;47.246;9.648;2022-07-06T13:09:48;2.60;;;1.33;;
15385;SDS011;7791;47.246;9.648;2022-07-06T13:12:14;2.13;;;1.38;;
15385;SDS011;7791;47.246;9.648;2022-07-06T13:14:43;2.45;;;1.30;;
15385;SDS011;7791;47.246;9.648;2022-07-06T13:17:09;4.88;;;1.40;;
15385;SDS011;7791;47.246;9.648;2022-07-06T13:19:35;2.20;;;1.40;;
15385;SDS011;7791;47.246;9.648;2022-07-06T13:22:03;2.22;;;1.50;;
15385;SDS011;7791;47.246;9.648;2022-07-06T13:24:29;3.42;;;1.40;;
15385;SDS011;7791;47.246;9.648;2022-07-06T13:26:56;3.55;;;1.58;;
15385;SDS011;7791;47.246;9.648;2022-07-06T13:29:26;4.55;;;1.27;;
15385;SDS011;7791;47.246;9.648;2022-07-06T13:31:54;2.70;;;1.40;;
15385;SDS011;7791;47.246;9.648;2022-07-06T13:34:20;2.85;;;1.30;;
15385;SDS011;7791;47.246;9.648;2022-07-06T13:36:46;4.15;;;1.55;;
15385;SDS011;7791;47.246;9.648;2022-07-06T13:39:12;2.60;;;1.33;;
15385;SDS011;7791;47.246;9.648;2022-07-06T13:41:38;2.28;;;1.42;;
15385;SDS011;7791;47.246;9.648;2022-07-06T13:44:04;2.03;;;1.58;;
15385;SDS011;7791;47.246;9.648;2022-07-06T13:46:30;3.50;;;1.40;;
15385;SDS011;7791;47.246;9.648;2022-07-06T13:48:58;3.60;;;1.20;;
15385;SDS011;7791;47.246;9.648;2022-07-06T13:51:25;3.72;;;1.50;;
15385;SDS011;7791;47.246;9.648;2022-07-06T13:53:51;1.88;;;1.20;;
15385;SDS011;7791;47.246;9.648;2022-07-06T13:56:18;3.28;;;1.60;;
15385;SDS011;7791;47.246;9.648;2022-07-06T13:58:44;4.97;;;1.73;;
15385;SDS011;7791;47.246;9.648;2022-07-06T14:01:13;1.92;;;1.30;;
15385;SDS011;7791;47.246;9.648;2022-07-06T14:03:39;2.85;;;1.27;;
15385;SDS011;7791;47.246;9.648;2022-07-06T14:06:06;1.88;;;1.20;;
15385;SDS011;7791;47.246;9.648;2022-07-06T14:08:33;2.53;;;1.30;;
15385;SDS011;7791;47.246;9.648;2022-07-06T14:11:03;2.45;;;1.30;;
15385;SDS011;7791;47.246;9.648;2022-07-06T14:13:30;7.45;;;1.40;;
15385;SDS011;7791;47.246;9.648;2022-07-06T14:15:56;2.65;;;1.23;;
15385;SDS011;7791;47.246;9.648;2022-07-06T14:18:23;3.00;;;1.30;;
15385;SDS011;7791;47.246;9.648;2022-07-06T14:20:50;3.83;;;1.50;;
15385;SDS011;7791;47.246;9.648;2022-07-06T14:23:19;1.60;;;1.20;;
15385;SDS011;7791;47.246;9.648;2022-07-06T14:25:46;1.73;;;1.33;;
15385;SDS011;7791;47.246;9.648;2022-07-06T14:28:13;4.05;;;1.33;;
15385;SDS011;7791;47.246;9.648;2022-07-06T14:30:39;5.38;;;1.60;;
15385;SDS011;7791;47.246;9.648;2022-07-06T14:33:06;2.13;;;1.40;;
15385;SDS011;7791;47.246;9.648;2022-07-06T14:35:34;3.50;;;1.55;;
15385;SDS011;7791;47.246;9.648;2022-07-06T14:38:02;5.30;;;1.30;;
15385;SDS011;7791;47.246;9.648;2022-07-06T14:40:30;2.03;;;1.48;;
15385;SDS011;7791;47.246;9.648;2022-07-06T14:42:57;3.53;;;1.50;;
15385;SDS011;7791;47.246;9.648;2022-07-06T14:45:24;3.35;;;1.58;;
15385;SDS011;7791;47.246;9.648;2022-07-06T14:47:51;5.03;;;1.73;;
15385;SDS011;7791;47.246;9.648;2022-07-06T14:50:16;4.68;;;1.50;;
15385;SDS011;7791;47.246;9.648;2022-07-06T14:52:45;2.67;;;1.63;;
15385;SDS011;7791;47.246;9.648;2022-07-06T14:55:11;6.22;;;1.70;;
15385;SDS011;7791;47.246;9.648;2022-07-06T14:57:39;4.78;;;1.67;;
15385;SDS011;7791;47.246;9.648;2022-07-06T15:00:09;3.75;;;1.45;;
15385;SDS011;7791;47.246;9.648;2022-07-06T15:02:37;1.65;;;1.30;;
15385;SDS011;7791;47.246;9.648;2022-07-06T15:05:04;6.90;;;1.70;;
15385;SDS011;7791;47.246;9.648;2022-07-06T15:07:31;1.83;;;1.40;;